Time,TemperatureF,DewpointF,PressureIn,WindDirection,WindDirectionDegrees,WindSpeedMPH,WindSpeedGustMPH,Humidity,HourlyPrecipIn,Conditions,Clouds,dailyrainin,SoftwareType,DateUTC
2013-07-03 00:01:00,61.3,54.0,30.05,North,0,0.0,0.0,77,0.00,,,0.00,WeatherCatV1.15B25,2013-07-03 05:01:00,
2013-07-03 00:06:00,61.2,54.3,30.05,North,0,0.0,0.0,78,0.00,,,0.00,WeatherCatV1.15B25,2013-07-03 05:06:00,
2013-07-03 00:11:00,61.0,54.4,30.05,North,0,0.0,0.0,79,0.00,,,0.00,WeatherCatV1.15B25,2013-07-03 05:11:00,
2013-07-03 00:16:00,61.0,54.8,30.05,North,0,0.0,0.0,80,0.00,,,0.00,WeatherCatV1.15B25,2013-07-03 05:16:00,
2013-07-03 00:21:00,60.9,54.7,30.05,North,0,0.0,0.0,80,0.00,,,0.00,WeatherCatV1.15B25,2013-07-03 05:21:00,
2013-07-03 00:26:00,60.7,54.5,30.05,North,0,0.0,0.0,80,0.00,,,0.00,WeatherCatV1.15B25,2013-07-03 05:26:00,
2013-07-03 00:29:00,60.6,54.4,30.05,North,0,0.0,0.0,80,0.00,,,0.00,WeatherCatV1.15B25,2013-07-03 05:29:00,
2013-07-03 00:34:00,60.3,54.1,30.05,North,0,0.0,0.0,80,0.00,,,0.00,WeatherCatV1.15B25,2013-07-03 05:34:00,
2013-07-03 00:39:00,60.2,53.7,30.04,North,0,0.0,0.0,79,0.00,,,0.00,WeatherCatV1.15B25,2013-07-03 05:39:00,
2013-07-03 00:44:00,60.1,53.9,30.04,North,0,0.0,0.0,80,0.00,,,0.00,WeatherCatV1.15B25,2013-07-03 05:44:00,
2013-07-03 00:49:00,60.0,53.8,30.05,North,0,0.0,0.0,80,0.00,,,0.00,WeatherCatV1.15B25,2013-07-03 05:49:00,
2013-07-03 00:54:00,60.0,54.1,30.05,North,0,0.0,0.0,81,0.00,,,0.00,WeatherCatV1.15B25,2013-07-03 05:54:00,
2013-07-03 00:59:00,60.1,54.2,30.05,North,0,0.0,0.0,81,0.00,,,0.00,WeatherCatV1.15B25,2013-07-03 05:59:00,
2013-07-03 01:04:00,60.1,54.2,30.05,North,0,0.0,0.0,81,0.00,,,0.00,WeatherCatV1.15B25,2013-07-03 06:04:00,
2013-07-03 01:09:00,60.0,54.1,30.05,North,0,0.0,0.0,81,0.00,,,0.00,WeatherCatV1.15B25,2013-07-03 06:09:00,
2013-07-03 01:14:00,60.0,54.1,30.05,North,0,0.0,0.0,81,0.00,,,0.00,WeatherCatV1.15B25,2013-07-03 06:14:00,
2013-07-03 01:19:00,60.0,54.1,30.05,North,0,0.0,0.0,81,0.00,,,0.00,WeatherCatV1.15B25,2013-07-03 06:19:00,
2013-07-03 01:20:00,59.9,54.1,30.05,North,0,0.0,0.0,81,0.00,,,0.00,WeatherCatV1.15B25,2013-07-03 06:20:00,
2013-07-03 01:21:00,59.9,54.1,30.05,North,0,0.0,0.0,81,0.00,,,0.00,WeatherCatV1.15B25,2013-07-03 06:21:00,
2013-07-03 01:26:00,59.9,54.4,30.05,North,0,0.0,0.0,82,0.00,,,0.00,WeatherCatV1.15B25,2013-07-03 06:26:00,
2013-07-03 01:30:00,59.9,54.4,30.05,North,0,0.0,0.0,82,0.00,,,0.00,WeatherCatV1.15B25,2013-07-03 06:30:00,
2013-07-03 01:35:00,59.8,54.3,30.05,North,0,0.0,0.0,82,0.00,,,0.00,WeatherCatV1.15B25,2013-07-03 06:35:00,
2013-07-03 01:40:00,59.7,54.2,30.05,North,0,0.0,0.0,82,0.00,,,0.00,WeatherCatV1.15B25,2013-07-03 06:40:00,
2013-07-03 01:45:00,59.6,54.1,30.05,North,0,0.0,0.0,82,0.00,,,0.00,WeatherCatV1.15B25,2013-07-03 06:45:00,
2013-07-03 01:50:00,59.4,53.9,30.05,North,0,0.0,0.0,82,0.00,,,0.00,WeatherCatV1.15B25,2013-07-03 06:50:00,
2013-07-03 01:55:00,59.0,53.5,30.05,North,0,0.0,0.0,82,0.00,,,0.00,WeatherCatV1.15B25,2013-07-03 06:55:00,
2013-07-03 02:00:00,59.0,53.5,30.04,North,0,0.0,0.0,82,0.00,,,0.00,WeatherCatV1.15B25,2013-07-03 07:00:00,
2013-07-03 02:05:00,59.0,53.8,30.04,North,0,0.0,0.0,83,0.00,,,0.00,WeatherCatV1.15B25,2013-07-03 07:05:00,
2013-07-03 02:10:00,58.7,53.5,30.04,North,0,0.0,0.0,83,0.00,,,0.00,WeatherCatV1.15B25,2013-07-03 07:10:00,
2013-07-03 02:15:00,58.6,53.5,30.04,North,0,0.0,0.0,83,0.00,,,0.00,WeatherCatV1.15B25,2013-07-03 07:15:00,
2013-07-03 02:20:00,58.5,53.4,30.04,North,0,0.0,0.0,83,0.00,,,0.00,WeatherCatV1.15B25,2013-07-03 07:20:00,
2013-07-03 02:25:00,58.4,53.6,30.04,North,0,0.0,0.0,84,0.00,,,0.00,WeatherCatV1.15B25,2013-07-03 07:25:00,
2013-07-03 02:30:00,58.3,53.5,30.04,North,0,0.0,0.0,84,0.00,,,0.00,WeatherCatV1.15B25,2013-07-03 07:30:00,
2013-07-03 02:35:00,58.2,53.4,30.04,North,0,0.0,0.0,84,0.00,,,0.00,WeatherCatV1.15B25,2013-07-03 07:35:00,
2013-07-03 02:40:00,58.1,53.3,30.04,North,0,0.0,0.0,84,0.00,,,0.00,WeatherCatV1.15B25,2013-07-03 07:40:00,
2013-07-03 02:45:00,58.0,53.2,30.04,North,0,0.0,0.0,84,0.00,,,0.00,WeatherCatV1.15B25,2013-07-03 07:45:00,
2013-07-03 02:50:00,57.8,53.0,30.04,North,0,0.0,0.0,84,0.00,,,0.00,WeatherCatV1.15B25,2013-07-03 07:50:00,
2013-07-03 02:55:00,57.7,53.2,30.04,North,0,0.0,0.0,85,0.00,,,0.00,WeatherCatV1.15B25,2013-07-03 07:55:00,
2013-07-03 03:00:00,57.5,53.0,30.04,North,0,0.0,0.0,85,0.00,,,0.00,WeatherCatV1.15B25,2013-07-03 08:00:00,
2013-07-03 03:01:00,57.5,53.0,30.04,North,0,0.0,0.0,85,0.00,,,0.00,WeatherCatV1.15B25,2013-07-03 08:01:00,
2013-07-03 03:06:00,57.4,52.9,30.04,North,0,0.0,0.0,85,0.00,,,0.00,WeatherCatV1.15B25,2013-07-03 08:06:00,
2013-07-03 03:11:00,57.3,52.8,30.04,North,0,0.0,0.0,85,0.00,,,0.00,WeatherCatV1.15B25,2013-07-03 08:11:00,
2013-07-03 03:16:00,57.3,53.1,30.04,North,0,0.0,0.0,86,0.00,,,0.00,WeatherCatV1.15B25,2013-07-03 08:16:00,
2013-07-03 03:17:00,57.3,53.1,30.04,North,0,0.0,0.0,86,0.00,,,0.00,WeatherCatV1.15B25,2013-07-03 08:17:00,
2013-07-03 03:22:00,57.3,53.1,30.04,North,0,0.0,0.0,86,0.00,,,0.00,WeatherCatV1.15B25,2013-07-03 08:22:00,
2013-07-03 03:27:00,57.2,53.0,30.04,North,0,0.0,0.0,86,0.00,,,0.00,WeatherCatV1.15B25,2013-07-03 08:27:00,
2013-07-03 03:30:00,57.2,53.0,30.04,North,0,0.0,0.0,86,0.00,,,0.00,WeatherCatV1.15B25,2013-07-03 08:30:00,
2013-07-03 03:35:00,57.1,52.9,30.04,North,0,0.0,0.0,86,0.00,,,0.00,WeatherCatV1.15B25,2013-07-03 08:35:00,
2013-07-03 03:38:00,57.0,52.9,30.04,North,0,0.0,0.0,86,0.00,,,0.00,WeatherCatV1.15B25,2013-07-03 08:38:00,
2013-07-03 03:40:00,57.0,52.9,30.04,North,0,0.0,0.0,86,0.00,,,0.00,WeatherCatV1.15B25,2013-07-03 08:40:00,
2013-07-03 03:41:00,57.0,52.9,30.04,North,0,0.0,0.0,86,0.00,,,0.00,WeatherCatV1.15B25,2013-07-03 08:41:00,
2013-07-03 03:46:00,56.8,53.0,30.04,North,0,0.0,0.0,87,0.00,,,0.00,WeatherCatV1.15B25,2013-07-03 08:46:00,
2013-07-03 03:51:00,56.7,52.9,30.04,North,0,0.0,0.0,87,0.00,,,0.00,WeatherCatV1.15B25,2013-07-03 08:51:00,
2013-07-03 03:56:00,56.6,52.8,30.04,North,0,0.0,0.0,87,0.00,,,0.00,WeatherCatV1.15B25,2013-07-03 08:56:00,
2013-07-03 04:01:00,56.5,52.7,30.04,North,0,0.0,0.0,87,0.00,,,0.00,WeatherCatV1.15B25,2013-07-03 09:01:00,
2013-07-03 04:06:00,56.4,52.6,30.04,North,0,0.0,0.0,87,0.00,,,0.00,WeatherCatV1.15B25,2013-07-03 09:06:00,
2013-07-03 04:11:00,56.2,52.4,30.04,North,0,0.0,0.0,87,0.00,,,0.00,WeatherCatV1.15B25,2013-07-03 09:11:00,
2013-07-03 04:16:00,56.1,52.3,30.04,North,0,0.0,0.0,87,0.00,,,0.00,WeatherCatV1.15B25,2013-07-03 09:16:00,
2013-07-03 04:21:00,56.0,52.2,30.04,North,0,0.0,0.0,87,0.00,,,0.00,WeatherCatV1.15B25,2013-07-03 09:21:00,
2013-07-03 04:26:00,56.1,52.6,30.04,North,0,0.0,0.0,88,0.00,,,0.00,WeatherCatV1.15B25,2013-07-03 09:26:00,
2013-07-03 04:31:00,56.3,52.8,30.04,North,0,0.0,0.0,88,0.00,,,0.00,WeatherCatV1.15B25,2013-07-03 09:31:00,
2013-07-03 04:36:00,56.5,53.3,30.04,North,0,0.0,0.0,89,0.00,,,0.00,WeatherCatV1.15B25,2013-07-03 09:36:00,
2013-07-03 04:41:00,56.7,53.5,30.04,North,0,0.0,0.0,89,0.00,,,0.00,WeatherCatV1.15B25,2013-07-03 09:41:00,
2013-07-03 04:46:00,56.9,53.7,30.04,North,0,0.0,0.0,89,0.00,,,0.00,WeatherCatV1.15B25,2013-07-03 09:46:00,
2013-07-03 04:51:00,56.9,53.7,30.04,North,0,0.0,0.0,89,0.00,,,0.00,WeatherCatV1.15B25,2013-07-03 09:51:00,
2013-07-03 04:56:00,56.9,53.7,30.04,North,0,0.0,0.0,89,0.00,,,0.00,WeatherCatV1.15B25,2013-07-03 09:56:00,
2013-07-03 05:01:00,57.2,54.3,30.04,North,0,0.0,0.0,90,0.00,,,0.00,WeatherCatV1.15B25,2013-07-03 10:01:00,
2013-07-03 05:04:00,57.2,54.3,30.04,North,0,0.0,0.0,90,0.00,,,0.00,WeatherCatV1.15B25,2013-07-03 10:04:00,
2013-07-03 05:05:00,57.2,54.3,30.04,North,0,0.0,0.0,90,0.00,,,0.00,WeatherCatV1.15B25,2013-07-03 10:05:00,
2013-07-03 05:10:00,57.0,54.1,30.04,North,0,0.0,0.0,90,0.00,,,0.00,WeatherCatV1.15B25,2013-07-03 10:10:00,
2013-07-03 05:15:00,56.8,53.9,30.04,North,0,0.0,0.0,90,0.00,,,0.00,WeatherCatV1.15B25,2013-07-03 10:15:00,
2013-07-03 05:20:00,56.3,53.4,30.04,North,0,0.0,0.0,90,0.00,,,0.00,WeatherCatV1.15B25,2013-07-03 10:20:00,
2013-07-03 05:25:00,55.9,52.7,30.04,North,0,0.0,0.0,89,0.00,,,0.00,WeatherCatV1.15B25,2013-07-03 10:25:00,
2013-07-03 05:30:00,55.5,52.6,30.04,North,0,0.0,0.0,90,0.00,,,0.00,WeatherCatV1.15B25,2013-07-03 10:30:00,
2013-07-03 05:35:00,55.2,52.3,30.04,North,0,0.0,0.0,90,0.00,,,0.00,WeatherCatV1.15B25,2013-07-03 10:35:00,
2013-07-03 05:40:00,55.1,52.2,30.04,North,0,0.0,0.0,90,0.00,,,0.00,WeatherCatV1.15B25,2013-07-03 10:40:00,
2013-07-03 05:45:00,54.9,52.0,30.04,North,0,0.0,0.0,90,0.00,,,0.00,WeatherCatV1.15B25,2013-07-03 10:45:00,
2013-07-03 05:48:00,54.8,51.9,30.04,North,0,0.0,0.0,90,0.00,,,0.00,WeatherCatV1.15B25,2013-07-03 10:48:00,
2013-07-03 05:50:00,54.7,51.8,30.04,North,0,0.0,0.0,90,0.00,,,0.00,WeatherCatV1.15B25,2013-07-03 10:50:00,
2013-07-03 05:56:00,54.6,51.7,30.04,North,0,0.0,0.0,90,0.00,,,0.00,WeatherCatV1.15B25,2013-07-03 10:56:00,
2013-07-03 06:01:00,54.5,51.6,30.05,North,0,0.0,0.0,90,0.00,,,0.00,WeatherCatV1.15B25,2013-07-03 11:01:00,
2013-07-03 06:06:00,54.4,51.5,30.05,North,0,0.0,0.0,90,0.00,,,0.00,WeatherCatV1.15B25,2013-07-03 11:06:00,
2013-07-03 06:11:00,54.3,51.4,30.05,North,0,0.0,0.0,90,0.00,,,0.00,WeatherCatV1.15B25,2013-07-03 11:11:00,
2013-07-03 06:16:00,54.2,51.3,30.05,North,0,0.0,0.0,90,0.00,,,0.00,WeatherCatV1.15B25,2013-07-03 11:16:00,
2013-07-03 06:21:00,54.2,51.3,30.05,North,0,0.0,0.0,90,0.00,,,0.00,WeatherCatV1.15B25,2013-07-03 11:21:00,
2013-07-03 06:26:00,54.3,51.7,30.05,North,0,0.0,0.0,91,0.00,,,0.00,WeatherCatV1.15B25,2013-07-03 11:26:00,
2013-07-03 06:31:00,54.3,51.7,30.05,North,0,0.0,0.0,91,0.00,,,0.00,WeatherCatV1.15B25,2013-07-03 11:31:00,
2013-07-03 06:36:00,54.3,51.7,30.05,North,0,0.0,0.0,91,0.00,,,0.00,WeatherCatV1.15B25,2013-07-03 11:36:00,
2013-07-03 06:41:00,54.4,51.8,30.05,North,0,0.0,0.0,91,0.00,,,0.00,WeatherCatV1.15B25,2013-07-03 11:41:00,
2013-07-03 06:44:00,54.5,51.9,30.05,North,0,0.0,0.0,91,0.00,,,0.00,WeatherCatV1.15B25,2013-07-03 11:44:00,
2013-07-03 06:49:00,54.5,51.9,30.05,North,0,0.0,0.0,91,0.00,,,0.00,WeatherCatV1.15B25,2013-07-03 11:49:00,
2013-07-03 06:53:00,54.5,51.9,30.05,North,0,0.0,0.0,91,0.00,,,0.00,WeatherCatV1.15B25,2013-07-03 11:53:00,
2013-07-03 06:58:00,54.5,51.9,30.05,North,0,0.0,0.0,91,0.00,,,0.01,WeatherCatV1.15B25,2013-07-03 11:58:00,
2013-07-03 07:03:00,54.6,52.0,30.05,North,0,0.0,0.0,91,0.00,,,0.01,WeatherCatV1.15B25,2013-07-03 12:03:00,
2013-07-03 07:08:00,54.8,52.2,30.05,North,0,0.0,0.0,91,0.00,,,0.01,WeatherCatV1.15B25,2013-07-03 12:08:00,
2013-07-03 07:13:00,55.3,52.7,30.05,North,0,0.0,0.0,91,0.00,,,0.01,WeatherCatV1.15B25,2013-07-03 12:13:00,
2013-07-03 07:18:00,55.9,53.6,30.05,North,0,0.0,0.0,92,0.00,,,0.01,WeatherCatV1.15B25,2013-07-03 12:18:00,
2013-07-03 07:23:00,56.7,54.4,30.06,North,0,0.0,0.0,92,0.00,,,0.01,WeatherCatV1.15B25,2013-07-03 12:23:00,
2013-07-03 07:28:00,57.4,55.1,30.06,North,0,0.0,0.0,92,0.00,,,0.01,WeatherCatV1.15B25,2013-07-03 12:28:00,
2013-07-03 07:33:00,57.9,55.6,30.06,North,0,0.0,0.0,92,0.00,,,0.01,WeatherCatV1.15B25,2013-07-03 12:33:00,
2013-07-03 07:38:00,58.7,56.4,30.06,North,0,0.0,0.0,92,0.00,,,0.01,WeatherCatV1.15B25,2013-07-03 12:38:00,
2013-07-03 07:43:00,59.1,56.8,30.06,North,0,0.0,0.0,92,0.00,,,0.01,WeatherCatV1.15B25,2013-07-03 12:43:00,
2013-07-03 07:48:00,59.9,57.6,30.06,North,0,0.0,0.0,92,0.00,,,0.01,WeatherCatV1.15B25,2013-07-03 12:48:00,
2013-07-03 07:50:00,60.2,57.9,30.06,North,0,0.0,0.0,92,0.00,,,0.01,WeatherCatV1.15B25,2013-07-03 12:50:00,
2013-07-03 07:55:00,60.8,58.5,30.06,North,0,0.0,0.0,92,0.00,,,0.01,WeatherCatV1.15B25,2013-07-03 12:55:00,
2013-07-03 08:00:00,61.4,59.1,30.07,North,0,0.0,0.0,92,0.00,,,0.01,WeatherCatV1.15B25,2013-07-03 13:00:00,
2013-07-03 08:05:00,62.0,59.3,30.07,North,0,0.0,0.0,91,0.00,,,0.01,WeatherCatV1.15B25,2013-07-03 13:05:00,
2013-07-03 08:10:00,62.7,60.0,30.07,North,0,0.0,0.0,91,0.00,,,0.01,WeatherCatV1.15B25,2013-07-03 13:10:00,
2013-07-03 08:15:00,63.4,60.7,30.07,North,0,0.0,0.0,91,0.00,,,0.01,WeatherCatV1.15B25,2013-07-03 13:15:00,
2013-07-03 08:20:00,64.0,61.0,30.07,North,0,0.0,0.0,90,0.00,,,0.01,WeatherCatV1.15B25,2013-07-03 13:20:00,
2013-07-03 08:25:00,64.6,61.6,30.07,North,0,0.0,0.0,90,0.00,,,0.01,WeatherCatV1.15B25,2013-07-03 13:25:00,
2013-07-03 08:30:00,65.5,62.5,30.08,North,0,0.0,0.0,90,0.00,,,0.01,WeatherCatV1.15B25,2013-07-03 13:30:00,
2013-07-03 08:35:00,66.2,62.5,30.08,North,0,0.0,0.0,88,0.00,,,0.01,WeatherCatV1.15B25,2013-07-03 13:35:00,
2013-07-03 08:40:00,67.1,62.8,30.08,North,0,0.0,0.0,86,0.00,,,0.01,WeatherCatV1.15B25,2013-07-03 13:40:00,
2013-07-03 08:45:00,67.8,62.4,30.08,North,0,0.0,0.0,83,0.00,,,0.01,WeatherCatV1.15B25,2013-07-03 13:45:00,
2013-07-03 08:50:00,68.5,61.7,30.08,North,0,0.0,0.0,79,0.00,,,0.01,WeatherCatV1.15B25,2013-07-03 13:50:00,
2013-07-03 08:55:00,69.3,61.4,30.08,North,0,0.0,0.0,76,0.00,,,0.01,WeatherCatV1.15B25,2013-07-03 13:55:00,
2013-07-03 09:00:00,70.1,61.0,30.08,North,0,0.0,0.0,73,0.00,,,0.01,WeatherCatV1.15B25,2013-07-03 14:00:00,
2013-07-03 09:05:00,70.9,60.6,30.08,North,0,0.0,0.0,70,0.00,,,0.01,WeatherCatV1.15B25,2013-07-03 14:05:00,
2013-07-03 09:10:00,71.7,60.1,30.08,North,0,0.0,0.0,67,0.00,,,0.01,WeatherCatV1.15B25,2013-07-03 14:10:00,
2013-07-03 09:15:00,72.6,60.6,30.08,North,0,0.0,0.0,66,0.00,,,0.01,WeatherCatV1.15B25,2013-07-03 14:15:00,
2013-07-03 09:20:00,73.4,60.0,30.08,North,0,0.0,0.0,63,0.00,,,0.01,WeatherCatV1.15B25,2013-07-03 14:20:00,
2013-07-03 09:25:00,74.1,60.7,30.08,North,0,0.0,0.0,63,0.00,,,0.01,WeatherCatV1.15B25,2013-07-03 14:25:00,
2013-07-03 09:30:00,74.9,61.0,30.07,North,0,0.0,0.0,62,0.00,,,0.01,WeatherCatV1.15B25,2013-07-03 14:30:00,
2013-07-03 09:35:00,75.9,61.5,30.07,North,0,0.0,0.0,61,0.00,,,0.01,WeatherCatV1.15B25,2013-07-03 14:35:00,
2013-07-03 09:46:00,78.0,61.5,30.07,North,0,0.0,0.0,57,0.00,,,0.01,WeatherCatV1.15B25,2013-07-03 14:46:00,
2013-07-03 09:50:00,78.7,61.7,30.07,North,0,0.0,0.0,56,0.00,,,0.01,WeatherCatV1.15B25,2013-07-03 14:50:00,
2013-07-03 09:55:00,79.3,61.7,30.07,North,0,0.0,2.0,55,0.00,,,0.01,WeatherCatV1.15B25,2013-07-03 14:55:00,
2013-07-03 10:00:00,80.0,61.3,30.07,North,0,0.0,2.0,53,0.00,,,0.01,WeatherCatV1.15B25,2013-07-03 15:00:00,
2013-07-03 10:02:00,80.2,61.5,30.07,North,0,0.0,2.0,53,0.00,,,0.01,WeatherCatV1.15B25,2013-07-03 15:02:00,
2013-07-03 10:07:00,80.4,60.0,30.07,North,0,0.0,0.0,50,0.00,,,0.01,WeatherCatV1.15B25,2013-07-03 15:07:00,
2013-07-03 10:12:00,80.7,60.3,30.07,North,0,0.0,0.0,50,0.00,,,0.01,WeatherCatV1.15B25,2013-07-03 15:12:00,
2013-07-03 10:14:00,81.0,60.0,30.07,North,0,0.0,4.0,49,0.00,,,0.01,WeatherCatV1.15B25,2013-07-03 15:14:00,
2013-07-03 10:19:00,81.1,59.5,30.07,North,0,0.0,4.0,48,0.00,,,0.01,WeatherCatV1.15B25,2013-07-03 15:19:00,
2013-07-03 10:24:00,81.2,59.6,30.07,North,0,0.0,0.0,48,0.00,,,0.01,WeatherCatV1.15B25,2013-07-03 15:24:00,
2013-07-03 10:27:00,81.4,59.8,30.06,North,0,0.0,0.0,48,0.00,,,0.01,WeatherCatV1.15B25,2013-07-03 15:27:00,
2013-07-03 10:32:00,81.6,59.4,30.06,North,0,0.0,0.0,47,0.00,,,0.01,WeatherCatV1.15B25,2013-07-03 15:32:00,
2013-07-03 10:37:00,81.7,60.1,30.07,North,0,0.0,0.0,48,0.00,,,0.01,WeatherCatV1.15B25,2013-07-03 15:37:00,
2013-07-03 10:42:00,81.9,59.7,30.06,North,0,0.0,0.0,47,0.00,,,0.01,WeatherCatV1.15B25,2013-07-03 15:42:00,
2013-07-03 10:47:00,82.3,60.0,30.06,North,0,0.0,0.0,47,0.00,,,0.01,WeatherCatV1.15B25,2013-07-03 15:47:00,
2013-07-03 10:51:00,82.7,59.8,30.06,North,0,0.0,2.0,46,0.00,,,0.01,WeatherCatV1.15B25,2013-07-03 15:51:00,
2013-07-03 10:56:00,83.0,59.4,30.06,North,0,0.0,0.0,45,0.00,,,0.01,WeatherCatV1.15B25,2013-07-03 15:56:00,
2013-07-03 11:01:00,83.5,59.3,30.06,North,0,0.0,0.0,44,0.00,,,0.01,WeatherCatV1.15B25,2013-07-03 16:01:00,
2013-07-03 11:06:00,83.8,57.6,30.06,North,0,0.0,2.0,41,0.00,,,0.01,WeatherCatV1.15B25,2013-07-03 16:06:00,
2013-07-03 11:11:00,84.1,59.2,30.06,North,0,0.0,0.0,43,0.00,,,0.01,WeatherCatV1.15B25,2013-07-03 16:11:00,
2013-07-03 11:16:00,84.4,58.8,30.06,North,0,0.0,0.0,42,0.00,,,0.01,WeatherCatV1.15B25,2013-07-03 16:16:00,
2013-07-03 11:21:00,85.0,60.0,30.06,North,0,0.0,0.0,43,0.00,,,0.01,WeatherCatV1.15B25,2013-07-03 16:21:00,
2013-07-03 11:26:00,85.5,60.4,30.06,North,0,0.0,0.0,43,0.00,,,0.01,WeatherCatV1.15B25,2013-07-03 16:26:00,
2013-07-03 11:31:00,85.9,58.7,30.06,North,0,0.0,0.0,40,0.00,,,0.01,WeatherCatV1.15B25,2013-07-03 16:31:00,
2013-07-03 11:36:00,86.3,57.7,30.06,North,0,0.0,2.0,38,0.00,,,0.01,WeatherCatV1.15B25,2013-07-03 16:36:00,
2013-07-03 11:41:00,86.6,58.7,30.05,North,0,0.0,0.0,39,0.00,,,0.01,WeatherCatV1.15B25,2013-07-03 16:41:00,
2013-07-03 11:46:00,86.8,58.1,30.06,North,0,0.0,0.0,38,0.00,,,0.01,WeatherCatV1.15B25,2013-07-03 16:46:00,
2013-07-03 11:51:00,87.1,58.4,30.05,North,0,0.0,0.0,38,0.00,,,0.01,WeatherCatV1.15B25,2013-07-03 16:51:00,
2013-07-03 11:56:00,87.0,56.0,30.05,North,0,4.0,10.0,35,0.00,,,0.01,WeatherCatV1.15B25,2013-07-03 16:56:00,
2013-07-03 12:01:00,86.1,57.5,30.05,North,0,0.0,2.0,38,0.00,,,0.01,WeatherCatV1.15B25,2013-07-03 17:01:00,
2013-07-03 12:06:00,86.6,55.6,30.05,North,0,0.0,2.0,35,0.00,,,0.01,WeatherCatV1.15B25,2013-07-03 17:06:00,
2013-07-03 12:11:00,86.8,57.4,30.05,North,0,0.0,0.0,37,0.00,,,0.01,WeatherCatV1.15B25,2013-07-03 17:11:00,
2013-07-03 12:16:00,87.0,54.4,30.05,North,0,0.0,2.0,33,0.00,,,0.01,WeatherCatV1.15B25,2013-07-03 17:16:00,
2013-07-03 12:21:00,85.8,54.2,30.05,North,0,0.0,0.0,34,0.00,,,0.01,WeatherCatV1.15B25,2013-07-03 17:21:00,
2013-07-03 12:26:00,85.3,53.7,30.05,North,0,0.0,0.0,34,0.00,,,0.01,WeatherCatV1.15B25,2013-07-03 17:26:00,
2013-07-03 12:31:00,85.0,55.8,30.05,North,0,0.0,2.0,37,0.00,,,0.01,WeatherCatV1.15B25,2013-07-03 17:31:00,
2013-07-03 12:36:00,85.1,56.6,30.05,North,0,0.0,0.0,38,0.00,,,0.01,WeatherCatV1.15B25,2013-07-03 17:36:00,
2013-07-03 12:41:00,85.7,56.4,30.04,North,0,0.0,0.0,37,0.00,,,0.01,WeatherCatV1.15B25,2013-07-03 17:41:00,
2013-07-03 12:46:00,86.4,57.0,30.04,North,0,0.0,0.0,37,0.00,,,0.01,WeatherCatV1.15B25,2013-07-03 17:46:00,
2013-07-03 12:51:00,87.3,57.0,30.04,North,0,0.0,0.0,36,0.00,,,0.01,WeatherCatV1.15B25,2013-07-03 17:51:00,
2013-07-03 12:56:00,87.3,55.5,30.04,ESE,112,0.0,4.0,34,0.00,,,0.01,WeatherCatV1.15B25,2013-07-03 17:56:00,
2013-07-03 13:01:00,86.3,56.2,30.04,North,0,0.0,0.0,36,0.00,,,0.01,WeatherCatV1.15B25,2013-07-03 18:01:00,
2013-07-03 13:06:00,86.5,55.6,30.04,North,0,6.0,12.0,35,0.00,,,0.01,WeatherCatV1.15B25,2013-07-03 18:06:00,
2013-07-03 13:11:00,86.8,57.4,30.03,SSE,165,0.0,0.0,37,0.00,,,0.01,WeatherCatV1.15B25,2013-07-03 18:11:00,
2013-07-03 13:16:00,87.1,58.4,30.03,North,0,0.0,0.0,38,0.00,,,0.01,WeatherCatV1.15B25,2013-07-03 18:16:00,
2013-07-03 13:21:00,87.3,59.3,30.03,North,0,0.0,0.0,39,0.00,,,0.01,WeatherCatV1.15B25,2013-07-03 18:21:00,
2013-07-03 13:26:00,87.8,56.7,30.03,North,0,0.0,4.0,35,0.00,,,0.01,WeatherCatV1.15B25,2013-07-03 18:26:00,
2013-07-03 13:31:00,88.0,56.1,30.03,North,0,0.0,0.0,34,0.00,,,0.01,WeatherCatV1.15B25,2013-07-03 18:31:00,
2013-07-03 13:36:00,87.5,57.2,30.03,North,0,0.0,0.0,36,0.00,,,0.01,WeatherCatV1.15B25,2013-07-03 18:36:00,
2013-07-03 13:41:00,87.7,55.8,30.03,ESE,109,0.0,0.0,34,0.00,,,0.01,WeatherCatV1.15B25,2013-07-03 18:41:00,
2013-07-03 13:46:00,87.5,56.4,30.02,North,0,0.0,0.0,35,0.00,,,0.01,WeatherCatV1.15B25,2013-07-03 18:46:00,
2013-07-03 13:51:00,87.7,56.6,30.02,North,0,0.0,0.0,35,0.00,,,0.01,WeatherCatV1.15B25,2013-07-03 18:51:00,
2013-07-03 13:56:00,87.1,54.5,30.02,North,0,0.0,0.0,33,0.00,,,0.01,WeatherCatV1.15B25,2013-07-03 18:56:00,
2013-07-03 14:01:00,87.5,57.2,30.02,North,0,6.0,8.0,36,0.00,,,0.01,WeatherCatV1.15B25,2013-07-03 19:01:00,
2013-07-03 14:06:00,88.3,57.9,30.02,SE,132,0.0,0.0,36,0.00,,,0.01,WeatherCatV1.15B25,2013-07-03 19:06:00,
2013-07-03 14:11:00,88.9,58.4,30.02,South,172,0.0,0.0,36,0.00,,,0.01,WeatherCatV1.15B25,2013-07-03 19:11:00,
2013-07-03 14:16:00,88.3,55.5,30.02,North,0,0.0,8.0,33,0.00,,,0.01,WeatherCatV1.15B25,2013-07-03 19:16:00,
2013-07-03 14:21:00,87.7,57.4,30.01,North,0,0.0,0.0,36,0.00,,,0.01,WeatherCatV1.15B25,2013-07-03 19:21:00,
2013-07-03 14:26:00,87.9,57.6,30.01,North,0,0.0,0.0,36,0.00,,,0.01,WeatherCatV1.15B25,2013-07-03 19:26:00,
2013-07-03 14:31:00,87.5,54.0,30.01,ESE,113,0.0,10.0,32,0.00,,,0.01,WeatherCatV1.15B25,2013-07-03 19:31:00,
2013-07-03 14:36:00,86.8,58.1,30.01,North,0,0.0,0.0,38,0.00,,,0.01,WeatherCatV1.15B25,2013-07-03 19:36:00,
2013-07-03 14:41:00,87.5,57.2,30.01,North,0,0.0,4.0,36,0.00,,,0.01,WeatherCatV1.15B25,2013-07-03 19:41:00,
2013-07-03 14:46:00,88.7,58.3,30.01,North,0,0.0,0.0,36,0.00,,,0.01,WeatherCatV1.15B25,2013-07-03 19:46:00,
2013-07-03 14:51:00,89.8,58.5,30.01,ESE,114,0.0,0.0,35,0.00,,,0.01,WeatherCatV1.15B25,2013-07-03 19:51:00,
2013-07-03 14:56:00,90.6,55.8,30.00,ESE,102,0.0,2.0,31,0.00,,,0.01,WeatherCatV1.15B25,2013-07-03 19:56:00,
2013-07-03 15:01:00,90.2,58.8,30.00,ESE,112,0.0,0.0,35,0.00,,,0.01,WeatherCatV1.15B25,2013-07-03 20:01:00,
2013-07-03 15:06:00,90.5,56.6,30.00,North,0,10.0,10.0,32,0.00,,,0.01,WeatherCatV1.15B25,2013-07-03 20:06:00,
2013-07-03 15:11:00,91.0,56.1,30.00,North,0,0.0,8.0,31,0.00,,,0.01,WeatherCatV1.15B25,2013-07-03 20:11:00,
2013-07-03 15:16:00,91.1,57.1,30.00,North,0,0.0,0.0,32,0.00,,,0.01,WeatherCatV1.15B25,2013-07-03 20:16:00,
2013-07-03 15:21:00,90.9,56.0,30.00,North,0,0.0,8.0,31,0.00,,,0.01,WeatherCatV1.15B25,2013-07-03 20:21:00,
2013-07-03 15:26:00,90.7,57.6,29.99,North,0,0.0,0.0,33,0.00,,,0.01,WeatherCatV1.15B25,2013-07-03 20:26:00,
2013-07-03 15:31:00,90.4,57.3,29.99,North,0,0.0,0.0,33,0.00,,,0.01,WeatherCatV1.15B25,2013-07-03 20:31:00,
2013-07-03 15:36:00,90.2,58.0,29.99,North,0,0.0,0.0,34,0.00,,,0.01,WeatherCatV1.15B25,2013-07-03 20:36:00,
2013-07-03 15:41:00,90.9,58.6,29.99,North,0,0.0,2.0,34,0.00,,,0.01,WeatherCatV1.15B25,2013-07-03 20:41:00,
2013-07-03 15:46:00,91.0,58.7,29.99,North,0,0.0,0.0,34,0.00,,,0.01,WeatherCatV1.15B25,2013-07-03 20:46:00,
2013-07-03 15:51:00,90.2,57.2,29.99,North,0,0.0,0.0,33,0.00,,,0.01,WeatherCatV1.15B25,2013-07-03 20:51:00,
2013-07-03 15:56:00,90.2,56.3,29.99,North,0,2.0,2.0,32,0.00,,,0.01,WeatherCatV1.15B25,2013-07-03 20:56:00,
2013-07-03 16:01:00,90.0,56.1,29.99,North,0,2.0,4.0,32,0.00,,,0.01,WeatherCatV1.15B25,2013-07-03 21:01:00,
2013-07-03 16:06:00,89.5,53.9,29.99,North,0,0.0,2.0,30,0.00,,,0.01,WeatherCatV1.15B25,2013-07-03 21:06:00,
2013-07-03 16:11:00,88.9,55.2,29.99,North,0,0.0,0.0,32,0.00,,,0.01,WeatherCatV1.15B25,2013-07-03 21:11:00,
2013-07-03 16:16:00,89.1,56.2,29.99,North,0,0.0,0.0,33,0.00,,,0.01,WeatherCatV1.15B25,2013-07-03 21:16:00,
2013-07-03 16:21:00,89.7,58.4,29.98,North,0,0.0,0.0,35,0.00,,,0.01,WeatherCatV1.15B25,2013-07-03 21:21:00,
2013-07-03 16:26:00,90.0,56.1,29.98,North,0,0.0,12.0,32,0.00,,,0.01,WeatherCatV1.15B25,2013-07-03 21:26:00,
2013-07-03 16:31:00,90.3,56.4,29.98,North,0,0.0,4.0,32,0.00,,,0.01,WeatherCatV1.15B25,2013-07-03 21:31:00,
2013-07-03 16:36:00,90.7,55.9,29.98,North,0,0.0,4.0,31,0.00,,,0.01,WeatherCatV1.15B25,2013-07-03 21:36:00,
2013-07-03 16:41:00,91.1,56.2,29.98,North,0,2.0,2.0,31,0.00,,,0.01,WeatherCatV1.15B25,2013-07-03 21:41:00,
2013-07-03 16:46:00,90.9,56.0,29.97,North,0,0.0,6.0,31,0.00,,,0.01,WeatherCatV1.15B25,2013-07-03 21:46:00,
2013-07-03 16:51:00,91.0,57.0,29.97,North,0,0.0,0.0,32,0.00,,,0.01,WeatherCatV1.15B25,2013-07-03 21:51:00,
2013-07-03 16:56:00,90.4,56.5,29.97,North,0,2.0,4.0,32,0.00,,,0.01,WeatherCatV1.15B25,2013-07-03 21:56:00,
2013-07-03 17:01:00,90.5,56.6,29.97,North,0,0.0,0.0,32,0.00,,,0.01,WeatherCatV1.15B25,2013-07-03 22:01:00,
2013-07-03 17:06:00,90.0,56.1,29.97,North,0,0.0,2.0,32,0.00,,,0.01,WeatherCatV1.15B25,2013-07-03 22:06:00,
2013-07-03 17:11:00,90.3,56.4,29.97,North,0,2.0,4.0,32,0.00,,,0.01,WeatherCatV1.15B25,2013-07-03 22:11:00,
2013-07-03 17:16:00,90.0,56.1,29.97,North,0,0.0,0.0,32,0.00,,,0.01,WeatherCatV1.15B25,2013-07-03 22:16:00,
2013-07-03 17:21:00,89.7,55.9,29.97,North,0,0.0,0.0,32,0.00,,,0.01,WeatherCatV1.15B25,2013-07-03 22:21:00,
2013-07-03 17:26:00,89.8,56.8,29.97,North,0,0.0,0.0,33,0.00,,,0.01,WeatherCatV1.15B25,2013-07-03 22:26:00,
2013-07-03 17:31:00,90.1,57.9,29.97,North,0,0.0,0.0,34,0.00,,,0.01,WeatherCatV1.15B25,2013-07-03 22:31:00,
2013-07-03 17:36:00,90.3,56.4,29.97,ENE,71,0.0,2.0,32,0.00,,,0.01,WeatherCatV1.15B25,2013-07-03 22:36:00,
2013-07-03 17:41:00,89.9,56.0,29.97,North,0,0.0,0.0,32,0.00,,,0.01,WeatherCatV1.15B25,2013-07-03 22:41:00,
2013-07-03 17:46:00,89.3,56.4,29.97,North,0,0.0,0.0,33,0.00,,,0.01,WeatherCatV1.15B25,2013-07-03 22:46:00,
2013-07-03 17:51:00,88.5,56.5,29.97,North,0,0.0,0.0,34,0.00,,,0.01,WeatherCatV1.15B25,2013-07-03 22:51:00,
2013-07-03 17:56:00,87.9,56.8,29.96,North,0,0.0,2.0,35,0.00,,,0.01,WeatherCatV1.15B25,2013-07-03 22:56:00,
2013-07-03 18:01:00,87.8,56.7,29.96,North,0,2.0,2.0,35,0.00,,,0.01,WeatherCatV1.15B25,2013-07-03 23:01:00,
2013-07-03 18:06:00,87.5,57.2,29.96,North,0,0.0,0.0,36,0.00,,,0.01,WeatherCatV1.15B25,2013-07-03 23:06:00,
2013-07-03 18:11:00,87.6,56.5,29.96,North,0,0.0,0.0,35,0.00,,,0.01,WeatherCatV1.15B25,2013-07-03 23:11:00,
2013-07-03 18:16:00,87.9,56.8,29.96,North,0,2.0,4.0,35,0.00,,,0.01,WeatherCatV1.15B25,2013-07-03 23:16:00,
2013-07-03 18:21:00,88.3,56.3,29.96,North,0,0.0,0.0,34,0.00,,,0.01,WeatherCatV1.15B25,2013-07-03 23:21:00,
2013-07-03 18:26:00,88.5,56.5,29.95,North,0,2.0,14.0,34,0.00,,,0.01,WeatherCatV1.15B25,2013-07-03 23:26:00,
2013-07-03 18:31:00,88.7,57.5,29.95,North,0,0.0,0.0,35,0.00,,,0.01,WeatherCatV1.15B25,2013-07-03 23:31:00,
2013-07-03 18:36:00,88.4,55.6,29.95,North,0,0.0,6.0,33,0.00,,,0.01,WeatherCatV1.15B25,2013-07-03 23:36:00,
2013-07-03 18:41:00,87.5,55.6,29.96,North,0,0.0,2.0,34,0.00,,,0.01,WeatherCatV1.15B25,2013-07-03 23:41:00,
2013-07-03 18:46:00,87.4,55.5,29.95,North,0,0.0,0.0,34,0.00,,,0.01,WeatherCatV1.15B25,2013-07-03 23:46:00,
2013-07-03 18:51:00,87.6,55.7,29.96,North,0,0.0,2.0,34,0.00,,,0.01,WeatherCatV1.15B25,2013-07-03 23:51:00,
2013-07-03 18:56:00,87.5,54.8,29.96,North,0,0.0,0.0,33,0.00,,,0.01,WeatherCatV1.15B25,2013-07-03 23:56:00,
2013-07-03 19:01:00,87.1,55.3,29.96,North,0,0.0,2.0,34,0.00,,,0.01,WeatherCatV1.15B25,2013-07-04 00:01:00,
2013-07-03 19:06:00,86.6,54.8,29.96,North,0,0.0,4.0,34,0.00,,,0.01,WeatherCatV1.15B25,2013-07-04 00:06:00,
2013-07-03 19:11:00,86.1,55.2,29.96,North,0,0.0,0.0,35,0.00,,,0.01,WeatherCatV1.15B25,2013-07-04 00:11:00,
2013-07-03 19:16:00,85.9,55.0,29.96,North,0,0.0,0.0,35,0.00,,,0.01,WeatherCatV1.15B25,2013-07-04 00:16:00,
2013-07-03 19:21:00,85.6,54.0,29.96,North,0,0.0,4.0,34,0.00,,,0.01,WeatherCatV1.15B25,2013-07-04 00:21:00,
2013-07-03 19:26:00,85.2,54.4,29.96,North,0,0.0,0.0,35,0.00,,,0.01,WeatherCatV1.15B25,2013-07-04 00:26:00,
2013-07-03 19:31:00,85.0,54.2,29.96,North,0,0.0,0.0,35,0.00,,,0.01,WeatherCatV1.15B25,2013-07-04 00:31:00,
2013-07-03 19:36:00,84.8,54.1,29.96,North,0,0.0,2.0,35,0.00,,,0.01,WeatherCatV1.15B25,2013-07-04 00:36:00,
2013-07-03 19:41:00,84.4,52.9,29.96,North,0,0.0,0.0,34,0.00,,,0.01,WeatherCatV1.15B25,2013-07-04 00:41:00,
2013-07-03 19:46:00,83.9,52.5,29.96,North,0,0.0,0.0,34,0.00,,,0.01,WeatherCatV1.15B25,2013-07-04 00:46:00,
2013-07-03 19:51:00,83.5,52.1,29.96,North,0,0.0,0.0,34,0.00,,,0.01,WeatherCatV1.15B25,2013-07-04 00:51:00,
2013-07-03 19:56:00,83.0,51.7,29.96,North,0,0.0,4.0,34,0.00,,,0.01,WeatherCatV1.15B25,2013-07-04 00:56:00,
2013-07-03 20:01:00,82.6,52.1,29.96,North,0,0.0,0.0,35,0.00,,,0.01,WeatherCatV1.15B25,2013-07-04 01:01:00,
2013-07-03 20:06:00,82.2,52.6,29.96,South,178,0.0,0.0,36,0.00,,,0.01,WeatherCatV1.15B25,2013-07-04 01:06:00,
2013-07-03 20:11:00,81.8,53.0,29.95,North,0,0.0,0.0,37,0.00,,,0.01,WeatherCatV1.15B25,2013-07-04 01:11:00,
2013-07-03 20:16:00,81.3,52.5,29.96,North,0,0.0,0.0,37,0.00,,,0.01,WeatherCatV1.15B25,2013-07-04 01:16:00,
2013-07-03 20:21:00,80.7,52.7,29.96,North,0,0.0,0.0,38,0.00,,,0.01,WeatherCatV1.15B25,2013-07-04 01:21:00,
2013-07-03 20:26:00,80.2,53.0,29.96,North,0,0.0,0.0,39,0.00,,,0.01,WeatherCatV1.15B25,2013-07-04 01:26:00,
2013-07-03 20:31:00,79.7,52.5,29.96,North,0,0.0,0.0,39,0.00,,,0.01,WeatherCatV1.15B25,2013-07-04 01:31:00,
2013-07-03 20:36:00,79.2,52.8,29.95,North,0,0.0,0.0,40,0.00,,,0.01,WeatherCatV1.15B25,2013-07-04 01:36:00,
2013-07-03 20:41:00,78.7,52.3,29.96,North,0,0.0,0.0,40,0.00,,,0.01,WeatherCatV1.15B25,2013-07-04 01:41:00,
2013-07-03 20:46:00,78.5,52.8,29.96,North,0,0.0,0.0,41,0.00,,,0.01,WeatherCatV1.15B25,2013-07-04 01:46:00,
2013-07-03 20:51:00,78.0,52.4,29.96,North,0,0.0,0.0,41,0.00,,,0.01,WeatherCatV1.15B25,2013-07-04 01:51:00,
2013-07-03 20:56:00,77.6,52.7,29.95,North,0,0.0,0.0,42,0.00,,,0.01,WeatherCatV1.15B25,2013-07-04 01:56:00,
2013-07-03 21:01:00,77.2,52.3,29.96,North,0,0.0,0.0,42,0.00,,,0.01,WeatherCatV1.15B25,2013-07-04 02:01:00,
2013-07-03 21:06:00,76.8,52.6,29.95,North,0,0.0,0.0,43,0.00,,,0.01,WeatherCatV1.15B25,2013-07-04 02:06:00,
2013-07-03 21:11:00,76.4,52.9,29.95,North,0,0.0,0.0,44,0.00,,,0.01,WeatherCatV1.15B25,2013-07-04 02:11:00,
2013-07-03 21:16:00,76.0,52.5,29.96,North,0,0.0,0.0,44,0.00,,,0.01,WeatherCatV1.15B25,2013-07-04 02:16:00,
2013-07-03 21:21:00,75.7,53.4,29.95,North,0,0.0,0.0,46,0.00,,,0.01,WeatherCatV1.15B25,2013-07-04 02:21:00,
2013-07-03 21:26:00,75.2,53.6,29.95,North,0,0.0,0.0,47,0.00,,,0.01,WeatherCatV1.15B25,2013-07-04 02:26:00,
2013-07-03 21:31:00,74.7,54.8,29.96,North,0,0.0,0.0,50,0.00,,,0.01,WeatherCatV1.15B25,2013-07-04 02:31:00,
2013-07-03 21:36:00,73.9,55.1,29.96,North,0,0.0,0.0,52,0.00,,,0.01,WeatherCatV1.15B25,2013-07-04 02:36:00,
2013-07-03 21:41:00,73.0,55.4,29.96,North,0,0.0,0.0,54,0.00,,,0.01,WeatherCatV1.15B25,2013-07-04 02:41:00,
2013-07-03 21:46:00,72.1,55.5,29.96,North,0,0.0,0.0,56,0.00,,,0.01,WeatherCatV1.15B25,2013-07-04 02:46:00,
2013-07-03 21:51:00,71.2,55.7,29.97,North,0,0.0,0.0,58,0.00,,,0.01,WeatherCatV1.15B25,2013-07-04 02:51:00,
2013-07-03 21:56:00,70.3,55.3,29.97,North,0,0.0,0.0,59,0.00,,,0.01,WeatherCatV1.15B25,2013-07-04 02:56:00,
2013-07-03 22:01:00,69.5,55.0,29.97,North,0,0.0,0.0,60,0.00,,,0.01,WeatherCatV1.15B25,2013-07-04 03:01:00,
2013-07-03 22:06:00,68.8,54.8,29.97,North,0,0.0,0.0,61,0.00,,,0.01,WeatherCatV1.15B25,2013-07-04 03:06:00,
2013-07-03 22:11:00,68.2,54.7,29.97,North,0,0.0,0.0,62,0.00,,,0.01,WeatherCatV1.15B25,2013-07-04 03:11:00,
2013-07-03 22:16:00,67.7,54.6,29.98,North,0,0.0,0.0,63,0.00,,,0.01,WeatherCatV1.15B25,2013-07-04 03:16:00,
2013-07-03 22:21:00,67.3,55.1,29.98,North,0,0.0,0.0,65,0.00,,,0.01,WeatherCatV1.15B25,2013-07-04 03:21:00,
2013-07-03 22:26:00,67.0,55.3,29.98,North,0,0.0,0.0,66,0.00,,,0.01,WeatherCatV1.15B25,2013-07-04 03:26:00,
2013-07-03 22:31:00,66.6,54.9,29.98,North,0,0.0,0.0,66,0.00,,,0.01,WeatherCatV1.15B25,2013-07-04 03:31:00,
2013-07-03 22:36:00,66.3,55.0,29.98,North,0,0.0,0.0,67,0.00,,,0.01,WeatherCatV1.15B25,2013-07-04 03:36:00,
2013-07-03 22:41:00,65.9,55.0,29.98,North,0,0.0,0.0,68,0.00,,,0.01,WeatherCatV1.15B25,2013-07-04 03:41:00,
2013-07-03 22:46:00,65.6,54.7,29.98,North,0,0.0,0.0,68,0.00,,,0.01,WeatherCatV1.15B25,2013-07-04 03:46:00,
2013-07-03 22:51:00,65.3,54.9,29.98,North,0,0.0,0.0,69,0.00,,,0.01,WeatherCatV1.15B25,2013-07-04 03:51:00,
2013-07-03 22:56:00,65.0,55.0,29.98,North,0,0.0,0.0,70,0.00,,,0.01,WeatherCatV1.15B25,2013-07-04 03:56:00,
2013-07-03 23:01:00,64.8,54.8,29.98,North,0,0.0,0.0,70,0.00,,,0.01,WeatherCatV1.15B25,2013-07-04 04:01:00,
2013-07-03 23:06:00,64.6,55.0,29.98,North,0,0.0,0.0,71,0.00,,,0.01,WeatherCatV1.15B25,2013-07-04 04:06:00,
2013-07-03 23:11:00,64.3,54.7,29.98,North,0,0.0,0.0,71,0.00,,,0.01,WeatherCatV1.15B25,2013-07-04 04:11:00,
2013-07-03 23:16:00,64.1,54.9,29.98,North,0,0.0,0.0,72,0.00,,,0.01,WeatherCatV1.15B25,2013-07-04 04:16:00,
2013-07-03 23:21:00,63.9,54.7,29.98,North,0,0.0,0.0,72,0.00,,,0.01,WeatherCatV1.15B25,2013-07-04 04:21:00,
2013-07-03 23:26:00,63.7,54.9,29.98,North,0,0.0,0.0,73,0.00,,,0.01,WeatherCatV1.15B25,2013-07-04 04:26:00,
2013-07-03 23:31:00,63.5,55.1,29.99,North,0,0.0,0.0,74,0.00,,,0.01,WeatherCatV1.15B25,2013-07-04 04:31:00,
2013-07-03 23:36:00,63.3,54.9,29.98,North,0,0.0,0.0,74,0.00,,,0.01,WeatherCatV1.15B25,2013-07-04 04:36:00,
2013-07-03 23:41:00,63.2,54.8,29.98,North,0,0.0,0.0,74,0.00,,,0.01,WeatherCatV1.15B25,2013-07-04 04:41:00,
2013-07-03 23:46:00,63.0,54.9,29.98,North,0,0.0,0.0,75,0.00,,,0.01,WeatherCatV1.15B25,2013-07-04 04:46:00,
2013-07-03 23:51:00,62.9,55.2,29.99,North,0,0.0,0.0,76,0.00,,,0.01,WeatherCatV1.15B25,2013-07-04 04:51:00,
2013-07-03 23:56:00,62.8,55.1,29.99,North,0,0.0,0.0,76,0.00,,,0.01,WeatherCatV1.15B25,2013-07-04 04:56:00,